createdAt,value
2022-08-19T00:01:53.461Z,75.64
2022-08-19T00:04:25.329Z,75.78
2022-08-19T00:06:53.047Z,75.97
2022-08-19T00:09:21.399Z,76.36
2022-08-19T00:11:48.094Z,76.19
2022-08-19T00:14:17.402Z,76.46
2022-08-19T00:16:47.530Z,76.37
2022-08-19T00:19:15.035Z,76.45
2022-08-19T00:21:41.976Z,76.18
2022-08-19T00:24:10.396Z,76.75
2022-08-19T00:26:37.974Z,76.67
2022-08-19T00:29:06.098Z,76.92
2022-08-19T00:31:32.849Z,77.02
2022-08-19T00:33:59.540Z,76.87
2022-08-19T00:36:26.445Z,77.25
2022-08-19T00:38:53.429Z,77.52
2022-08-19T00:41:22.272Z,77.96
2022-08-19T00:44:01.123Z,78.17
2022-08-19T00:46:28.229Z,78.38
2022-08-19T00:48:57.010Z,78.26
2022-08-19T00:51:27.518Z,78.22
2022-08-19T00:53:57.740Z,78.42
2022-08-19T00:56:24.994Z,78.99
2022-08-19T00:58:51.707Z,78.88
2022-08-19T01:01:18.405Z,78.81
2022-08-19T01:03:58.058Z,78.60
2022-08-19T01:06:26.558Z,78.96
2022-08-19T01:08:54.668Z,78.98
2022-08-19T01:11:22.597Z,78.93
2022-08-19T01:13:51.178Z,78.85
2022-08-19T01:16:20.389Z,78.65
2022-08-19T01:18:47.829Z,78.97
2022-08-19T01:21:38.721Z,78.82
2022-08-19T01:24:05.412Z,78.98
2022-08-19T01:26:31.932Z,79.20
2022-08-19T01:29:02.083Z,79.36
2022-08-19T01:31:32.662Z,79.23
2022-08-19T01:34:00.896Z,79.16
2022-08-19T01:36:33.868Z,79.28
2022-08-19T01:39:02.383Z,79.26
2022-08-19T01:41:29.027Z,79.25
2022-08-19T01:44:03.141Z,79.44
2022-08-19T01:46:44.691Z,79.24
2022-08-19T01:49:11.492Z,79.41
2022-08-19T01:51:40.213Z,79.57
2022-08-19T01:54:08.942Z,79.58
2022-08-19T01:56:35.717Z,79.48
2022-08-19T01:59:11.409Z,79.44
2022-08-19T02:01:38.052Z,79.01
2022-08-19T02:04:06.053Z,79.35
2022-08-19T02:06:33.271Z,78.97
2022-08-19T02:09:00.189Z,79.41
2022-08-19T02:11:29.766Z,79.14
2022-08-19T02:13:56.677Z,79.13
2022-08-19T02:16:23.357Z,79.13
2022-08-19T02:18:50.465Z,79.05
2022-08-19T02:21:18.791Z,79.24
2022-08-19T02:23:46.402Z,79.55
2022-08-19T02:26:13.603Z,79.69
2022-08-19T02:28:41.613Z,79.50
2022-08-19T02:31:17.081Z,79.58
2022-08-19T02:33:43.765Z,79.52
2022-08-19T02:36:12.922Z,79.71
2022-08-19T02:38:43.202Z,79.86
2022-08-19T02:41:23.069Z,79.79
2022-08-19T02:44:26.394Z,79.51
2022-08-19T02:46:40.946Z,79.56
2022-08-19T02:49:08.694Z,79.80
2022-08-19T02:51:39.442Z,79.72
2022-08-19T02:54:07.869Z,79.98
2022-08-19T02:56:40.224Z,79.75
2022-08-19T02:59:11.189Z,80.27
2022-08-19T03:01:40.750Z,80.33
2022-08-19T03:04:08.569Z,80.14
2022-08-19T03:06:38.133Z,80.29
2022-08-19T03:09:05.107Z,80.27
2022-08-19T03:11:33.420Z,80.35
2022-08-19T03:14:01.172Z,80.31
2022-08-19T03:16:29.893Z,80.04
2022-08-19T03:19:01.062Z,80.08
2022-08-19T03:21:32.892Z,80.34
2022-08-19T03:24:02.275Z,80.35
2022-08-19T03:26:29.086Z,80.05
2022-08-19T03:28:58.426Z,79.88
2022-08-19T03:31:45.548Z,80.30
2022-08-19T03:34:18.772Z,80.21
2022-08-19T03:36:47.102Z,80.05
2022-08-19T03:39:14.056Z,80.08
2022-08-19T03:41:45.385Z,80.10
2022-08-19T03:44:17.060Z,80.16
2022-08-19T03:46:46.965Z,79.92
2022-08-19T03:49:14.244Z,80.24
2022-08-19T03:51:43.294Z,79.91
2022-08-19T03:54:13.902Z,79.94
2022-08-19T03:56:42.330Z,79.97
2022-08-19T03:59:11.780Z,79.69
2022-08-19T04:01:38.562Z,79.81
2022-08-19T04:04:05.473Z,79.68
2022-08-19T04:06:39.555Z,79.75
2022-08-19T04:09:09.470Z,80.16
2022-08-19T04:11:43.081Z,80.12
2022-08-19T04:14:16.641Z,79.96
2022-08-19T04:16:45.421Z,80.06
2022-08-19T04:19:13.098Z,80.18
2022-08-19T04:21:40.638Z,79.78
2022-08-19T04:24:07.425Z,80.15
2022-08-19T04:26:38.305Z,80.00
2022-08-19T04:29:12.748Z,80.44
2022-08-19T04:31:41.997Z,80.01
2022-08-19T04:34:11.964Z,80.12
2022-08-19T04:36:41.547Z,79.73
2022-08-19T04:39:14.722Z,80.23
2022-08-19T04:41:59.870Z,79.97
2022-08-19T04:44:26.696Z,80.11
2022-08-19T04:46:54.070Z,80.32
2022-08-19T04:49:23.449Z,80.04
2022-08-19T04:51:53.365Z,80.42
2022-08-19T04:54:37.025Z,80.16
2022-08-19T04:57:07.890Z,79.89
2022-08-19T04:59:35.113Z,79.95
2022-08-19T05:02:01.746Z,79.90
2022-08-19T05:04:32.795Z,79.67
2022-08-19T05:07:02.111Z,80.02
2022-08-19T05:09:52.629Z,79.93
2022-08-19T05:12:18.785Z,80.08
2022-08-19T05:14:48.311Z,79.98
2022-08-19T05:17:34.933Z,79.67
2022-08-19T05:20:20.976Z,79.48
2022-08-19T05:22:48.855Z,79.63
2022-08-19T05:25:20.946Z,79.69
2022-08-19T05:27:48.267Z,79.63
2022-08-19T05:30:15.443Z,79.71
2022-08-19T05:32:42.436Z,79.62
2022-08-19T05:35:10.465Z,79.71
2022-08-19T05:37:37.315Z,79.34
2022-08-19T05:40:05.408Z,79.41
2022-08-19T05:42:32.225Z,79.42
2022-08-19T05:44:58.896Z,79.22
2022-08-19T05:47:25.445Z,79.39
2022-08-19T05:49:52.106Z,79.26
2022-08-19T05:52:25.517Z,79.21
2022-08-19T05:54:53.202Z,79.35
2022-08-19T05:57:20.372Z,79.09
2022-08-19T05:59:49.439Z,79.18
2022-08-19T06:02:20.510Z,78.87
2022-08-19T06:04:47.563Z,78.95
2022-08-19T06:07:14.189Z,78.63
2022-08-19T06:09:43.591Z,78.72
2022-08-19T06:12:10.466Z,78.65
2022-08-19T06:14:41.687Z,78.35
2022-08-19T06:17:09.264Z,78.59
2022-08-19T06:19:40.890Z,78.77
2022-08-19T06:22:08.477Z,78.48
2022-08-19T06:24:36.211Z,78.35
2022-08-19T06:27:06.683Z,78.33
2022-08-19T06:29:33.726Z,78.28
2022-08-19T06:32:01.833Z,78.23
2022-08-19T06:34:31.165Z,78.06
2022-08-19T06:37:02.052Z,78.04
2022-08-19T06:39:32.199Z,77.90
2022-08-19T06:42:01.578Z,78.04
2022-08-19T06:44:30.538Z,77.88
2022-08-19T06:46:58.796Z,77.98
2022-08-19T06:49:28.618Z,77.79
2022-08-19T06:51:57.726Z,77.63
2022-08-19T06:54:30.791Z,77.58
2022-08-19T06:57:04.732Z,77.42
2022-08-19T06:59:34.152Z,77.14
2022-08-19T07:02:06.396Z,77.23
2022-08-19T07:04:34.857Z,77.05
2022-08-19T07:07:19.907Z,76.96
2022-08-19T07:09:57.127Z,76.72
2022-08-19T07:12:28.355Z,76.52
2022-08-19T07:14:56.836Z,76.56
2022-08-19T07:17:24.636Z,76.35
2022-08-19T07:19:51.784Z,76.16
2022-08-19T07:22:23.827Z,75.77
2022-08-19T07:24:51.955Z,75.62
2022-08-19T07:27:25.362Z,75.01
2022-08-19T07:29:55.779Z,74.86
2022-08-19T07:32:23.849Z,74.59
2022-08-19T07:34:50.430Z,74.27
2022-08-19T07:37:17.190Z,74.25
2022-08-19T07:39:44.045Z,73.62
2022-08-19T07:42:13.388Z,73.54
2022-08-19T07:47:49.744Z,72.93
2022-08-19T07:50:00.638Z,72.79
2022-08-19T07:52:30.056Z,72.60
2022-08-19T07:54:56.622Z,72.20
2022-08-19T07:57:23.197Z,71.67
2022-08-19T07:59:49.782Z,71.72
2022-08-19T08:02:16.348Z,71.25
2022-08-19T08:05:01.209Z,71.21
2022-08-19T08:07:46.661Z,70.50
2022-08-19T08:10:21.329Z,69.94
2022-08-19T08:13:09.306Z,69.78
2022-08-19T08:15:38.584Z,69.23
2022-08-19T08:18:08.565Z,69.09
2022-08-19T08:20:35.923Z,68.42
2022-08-19T08:23:21.145Z,67.74
2022-08-19T08:25:49.441Z,66.92
2022-08-19T08:28:17.664Z,65.71
2022-08-19T08:30:46.777Z,65.15
2022-08-19T08:35:46.672Z,64.18
2022-08-19T08:38:14.102Z,64.28
2022-08-19T08:40:45.629Z,64.23
2022-08-19T08:43:32.198Z,64.39
2022-08-19T08:46:16.354Z,63.84
2022-08-19T08:49:29.430Z,63.96
2022-08-19T08:52:16.640Z,64.00
2022-08-19T08:54:54.759Z,63.52
2022-08-19T08:57:37.078Z,63.35
2022-08-19T09:00:16.192Z,63.17
2022-08-19T09:02:43.772Z,62.74
2022-08-19T09:05:16.572Z,62.54
2022-08-19T09:07:58.678Z,62.36
2022-08-19T09:10:32.552Z,61.92
2022-08-19T09:13:25.769Z,62.11
2022-08-19T09:15:58.529Z,61.74
2022-08-19T09:18:25.193Z,61.50
2022-08-19T09:20:57.236Z,61.25
2022-08-19T09:23:26.550Z,60.67
2022-08-19T09:25:54.116Z,60.81
2022-08-19T09:28:22.696Z,60.04
2022-08-19T09:30:54.133Z,59.07
2022-08-19T09:33:20.969Z,59.21
2022-08-19T09:35:53.696Z,58.79
2022-08-19T09:38:21.572Z,58.38
2022-08-19T09:40:48.482Z,58.35
2022-08-19T09:43:33.018Z,58.05
2022-08-19T09:46:01.855Z,57.45
2022-08-19T09:48:28.538Z,57.02
2022-08-19T09:50:55.113Z,56.32
2022-08-19T09:53:25.538Z,56.45
2022-08-19T09:55:52.737Z,56.27
2022-08-19T09:58:21.355Z,55.70
2022-08-19T10:00:51.595Z,54.71
2022-08-19T10:03:18.337Z,53.65
2022-08-19T10:05:50.521Z,52.69
2022-08-19T10:08:31.286Z,51.69
2022-08-19T10:10:59.004Z,50.98
2022-08-19T10:13:28.243Z,50.73
2022-08-19T10:15:57.523Z,50.60
2022-08-19T10:18:26.487Z,50.14
2022-08-19T10:21:02.417Z,50.74
2022-08-19T10:23:33.574Z,50.74
2022-08-19T10:26:01.410Z,51.06
2022-08-19T10:28:27.940Z,50.91
2022-08-19T10:30:57.101Z,50.10
2022-08-19T10:33:38.911Z,49.62
2022-08-19T10:36:16.203Z,49.54
2022-08-19T10:38:56.105Z,49.70
2022-08-19T10:41:25.599Z,49.31
2022-08-19T10:43:58.951Z,49.27
2022-08-19T10:46:34.214Z,49.27
2022-08-19T10:49:02.813Z,48.42
2022-08-19T10:51:48.655Z,49.07
2022-08-19T10:54:15.819Z,48.35
2022-08-19T10:56:54.314Z,47.63
2022-08-19T10:59:35.836Z,47.02
2022-08-19T11:02:05.613Z,47.52
2022-08-19T11:04:33.008Z,46.83
2022-08-19T11:06:59.921Z,46.73
2022-08-19T11:09:34.049Z,46.64
2022-08-19T11:12:02.646Z,46.45
2022-08-19T11:14:34.019Z,46.29
2022-08-19T11:17:01.369Z,46.28
2022-08-19T11:19:28.491Z,46.08
2022-08-19T11:21:57.661Z,45.79
2022-08-19T11:24:28.424Z,45.13
2022-08-19T11:27:02.134Z,44.78
2022-08-19T11:29:29.089Z,44.70
2022-08-19T11:31:55.916Z,44.53
2022-08-19T11:34:26.253Z,44.19
2022-08-19T11:36:58.940Z,44.40
2022-08-19T11:39:27.350Z,43.93
2022-08-19T11:41:54.090Z,44.22
2022-08-19T11:44:20.670Z,43.97
2022-08-19T11:46:47.616Z,44.23
2022-08-19T11:49:17.422Z,43.12
2022-08-19T11:51:44.607Z,42.95
2022-08-19T11:54:13.764Z,42.50
2022-08-19T11:56:41.312Z,42.09
2022-08-19T11:59:12.751Z,42.78
2022-08-19T12:01:43.581Z,42.27
2022-08-19T12:04:11.090Z,42.09
2022-08-19T12:06:39.728Z,42.43
2022-08-19T12:09:10.459Z,41.80
2022-08-19T12:11:38.861Z,41.79
2022-08-19T12:14:05.514Z,41.33
2022-08-19T12:16:33.666Z,40.73
2022-08-19T12:19:04.775Z,40.60
2022-08-19T12:21:33.730Z,40.68
2022-08-19T12:24:01.477Z,40.40
2022-08-19T12:26:30.191Z,39.81
2022-08-19T12:28:56.834Z,40.17
2022-08-19T12:31:23.630Z,40.31
2022-08-19T12:33:50.217Z,40.32
2022-08-19T12:36:18.642Z,40.66
2022-08-19T12:38:45.550Z,40.75
2022-08-19T12:41:15.412Z,40.77
2022-08-19T12:43:42.857Z,40.86
2022-08-19T12:46:11.555Z,40.63
2022-08-19T12:48:42.554Z,40.90
2022-08-19T12:51:20.291Z,40.62
2022-08-19T12:53:50.630Z,40.73
2022-08-19T12:56:22.286Z,40.69
2022-08-19T12:58:52.985Z,40.54
2022-08-19T13:01:22.987Z,40.38
2022-08-19T13:03:51.026Z,40.55
2022-08-19T13:06:19.540Z,40.70
2022-08-19T13:08:47.318Z,40.56
2022-08-19T13:11:16.404Z,40.74
2022-08-19T13:13:44.408Z,40.72
2022-08-19T13:16:12.825Z,40.76
2022-08-19T13:18:40.812Z,40.57
2022-08-19T13:21:09.418Z,40.65
2022-08-19T13:23:36.793Z,40.68
2022-08-19T13:26:06.068Z,40.97
2022-08-19T13:28:51.828Z,40.77
2022-08-19T13:31:42.433Z,41.14
2022-08-19T13:34:09.054Z,41.50
2022-08-19T13:36:37.254Z,41.28
2022-08-19T13:39:05.442Z,41.46
2022-08-19T13:41:32.269Z,41.35
2022-08-19T13:43:58.810Z,41.61
2022-08-19T13:46:25.402Z,41.69
2022-08-19T13:48:51.977Z,41.71
2022-08-19T13:51:18.887Z,41.85
2022-08-19T13:53:48.035Z,42.07
2022-08-19T13:56:24.195Z,41.84
2022-08-19T13:58:52.989Z,41.84
2022-08-19T14:01:24.528Z,41.76
2022-08-19T14:03:51.598Z,41.70
2022-08-19T14:06:18.109Z,41.56
2022-08-19T14:08:46.377Z,41.76
2022-08-19T14:11:13.162Z,41.51
2022-08-19T14:13:39.801Z,41.80
2022-08-19T14:16:14.353Z,41.76
2022-08-19T14:18:41.442Z,41.83
2022-08-19T14:21:09.386Z,41.91
2022-08-19T14:23:37.165Z,42.13
2022-08-19T14:26:12.701Z,42.30
2022-08-19T14:28:41.854Z,42.10
2022-08-19T14:31:13.762Z,41.89
2022-08-19T14:33:41.434Z,42.11
2022-08-19T14:36:08.193Z,42.61
2022-08-19T14:38:35.405Z,42.61
2022-08-19T14:41:09.056Z,42.15
2022-08-19T14:43:35.685Z,42.30
2022-08-19T14:46:02.758Z,41.82
2022-08-19T14:48:33.810Z,42.25
2022-08-19T14:51:00.535Z,42.40
2022-08-19T14:53:27.068Z,42.42
2022-08-19T14:55:53.612Z,42.30
2022-08-19T14:58:28.339Z,42.70
2022-08-19T15:00:56.855Z,42.73
2022-08-19T15:03:23.487Z,42.42
2022-08-19T15:05:50.355Z,42.75
2022-08-19T15:08:16.941Z,42.54
2022-08-19T15:10:43.506Z,42.06
2022-08-19T15:13:10.472Z,42.54
2022-08-19T15:15:37.074Z,42.28
2022-08-19T15:18:04.834Z,42.44
2022-08-19T15:20:31.902Z,42.46
2022-08-19T15:22:59.937Z,42.45
2022-08-19T15:25:28.161Z,43.19
2022-08-19T15:27:57.438Z,43.17
2022-08-19T15:30:27.996Z,43.15
2022-08-19T15:32:55.733Z,43.41
2022-08-19T15:35:23.495Z,43.69
2022-08-19T15:37:52.078Z,43.33
2022-08-19T15:40:20.537Z,43.74
2022-08-19T15:42:47.627Z,43.76
2022-08-19T15:45:14.910Z,44.03
2022-08-19T15:47:41.788Z,43.54
2022-08-19T15:50:14.439Z,43.75
2022-08-19T15:52:53.457Z,43.45
2022-08-19T15:55:33.118Z,43.54
2022-08-19T15:58:28.412Z,43.94
2022-08-19T16:01:16.435Z,44.04
2022-08-19T16:04:03.813Z,44.46
2022-08-19T16:06:31.700Z,44.17
2022-08-19T16:09:01.985Z,44.67
2022-08-19T16:11:31.383Z,44.62
2022-08-19T16:13:59.614Z,44.84
2022-08-19T16:16:33.603Z,44.49
2022-08-19T16:19:02.722Z,44.96
2022-08-19T16:21:33.470Z,44.98
2022-08-19T16:24:07.958Z,44.83
2022-08-19T16:26:35.049Z,45.29
2022-08-19T16:29:04.026Z,45.22
2022-08-19T16:31:36.866Z,45.23
2022-08-19T16:34:26.236Z,45.30
2022-08-19T16:36:56.180Z,45.17
2022-08-19T16:39:23.838Z,44.96
2022-08-19T16:41:51.031Z,45.43
2022-08-19T16:44:19.486Z,45.16
2022-08-19T16:46:47.389Z,45.79
2022-08-19T16:49:53.527Z,45.98
2022-08-19T16:52:14.754Z,46.10
2022-08-19T16:54:41.764Z,45.87
2022-08-19T16:57:11.906Z,46.02
2022-08-19T16:59:42.555Z,46.57
2022-08-19T17:02:15.429Z,46.90
2022-08-19T17:04:42.009Z,47.14
2022-08-19T17:07:10.040Z,47.20
2022-08-19T17:09:38.011Z,47.35
2022-08-19T17:12:05.608Z,47.76
2022-08-19T17:14:32.168Z,48.16
2022-08-19T17:16:58.740Z,48.06
2022-08-19T17:19:25.338Z,48.54
2022-08-19T17:21:52.284Z,48.65
2022-08-19T17:24:18.831Z,49.06
2022-08-19T17:26:45.905Z,49.46
2022-08-19T17:29:12.546Z,49.56
2022-08-19T17:31:39.128Z,49.76
2022-08-19T17:34:06.417Z,50.10
2022-08-19T17:36:35.750Z,50.26
2022-08-19T17:39:05.456Z,50.69
2022-08-19T17:41:42.874Z,50.94
2022-08-19T17:44:09.747Z,51.22
2022-08-19T17:46:36.550Z,51.50
2022-08-19T17:49:03.551Z,51.97
2022-08-19T17:51:33.147Z,52.01
2022-08-19T17:54:04.351Z,52.77
2022-08-19T17:56:31.010Z,52.97
2022-08-19T17:59:00.321Z,53.46
2022-08-19T18:01:32.029Z,53.86
2022-08-19T18:04:17.308Z,53.98
2022-08-19T18:06:52.630Z,54.57
2022-08-19T18:09:23.658Z,54.70
2022-08-19T18:11:52.728Z,55.25
2022-08-19T18:14:21.261Z,55.40
2022-08-19T18:16:47.806Z,55.66
2022-08-19T18:19:14.375Z,55.86
2022-08-19T18:21:40.944Z,55.91
2022-08-19T18:24:08.157Z,56.15
2022-08-19T18:26:35.065Z,56.58
2022-08-19T18:29:02.109Z,56.80
2022-08-19T18:31:30.063Z,57.33
2022-08-19T18:33:57.180Z,56.99
2022-08-19T18:36:51.887Z,57.67
2022-08-19T18:39:29.873Z,57.30
2022-08-19T18:42:15.179Z,57.68
2022-08-19T18:45:03.159Z,57.82
2022-08-19T18:47:48.315Z,58.21
2022-08-19T18:50:15.043Z,58.73
2022-08-19T18:52:43.251Z,58.74
2022-08-19T18:55:10.245Z,59.00
2022-08-19T18:57:36.785Z,59.18
2022-08-19T19:00:05.309Z,59.73
2022-08-19T19:02:38.809Z,59.47
2022-08-19T19:05:07.644Z,59.77
2022-08-19T19:07:35.473Z,59.92
2022-08-19T19:10:02.419Z,59.90
2022-08-19T19:12:29.870Z,60.41
2022-08-19T19:14:58.520Z,60.30
2022-08-19T19:17:28.513Z,60.46
2022-08-19T19:19:55.345Z,60.92
2022-08-19T19:22:23.725Z,60.99
2022-08-19T19:24:50.985Z,61.09
2022-08-19T19:27:28.791Z,61.51
2022-08-19T19:29:55.755Z,61.67
2022-08-19T19:32:31.070Z,61.83
2022-08-19T19:34:57.733Z,61.57
2022-08-19T19:37:24.354Z,61.71
2022-08-19T19:39:51.028Z,62.04
2022-08-19T19:42:21.200Z,61.75
2022-08-19T19:44:50.553Z,61.99
2022-08-19T19:47:19.060Z,62.30
2022-08-19T19:50:13.136Z,62.30
2022-08-19T19:52:40.573Z,62.32
2022-08-19T19:55:09.467Z,62.95
2022-08-19T19:57:37.430Z,62.95
2022-08-19T20:00:05.212Z,63.01
2022-08-19T20:02:32.027Z,63.00
2022-08-19T20:04:58.858Z,63.35
2022-08-19T20:07:45.461Z,63.28
2022-08-19T20:10:13.118Z,63.68
2022-08-19T20:12:39.782Z,63.64
2022-08-19T20:15:07.279Z,63.76
2022-08-19T20:17:33.896Z,63.72
2022-08-19T20:20:00.410Z,63.80
2022-08-19T20:22:27.284Z,63.91
2022-08-19T20:25:01.810Z,64.29
2022-08-19T20:27:30.363Z,64.57
2022-08-19T20:30:02.683Z,64.63
2022-08-19T20:32:29.858Z,64.42
2022-08-19T20:34:58.617Z,64.99
2022-08-19T20:37:25.541Z,65.03
2022-08-19T20:39:52.207Z,65.33
2022-08-19T20:42:19.002Z,65.16
2022-08-19T20:44:45.818Z,65.53
2022-08-19T20:47:15.093Z,65.54
2022-08-19T20:49:41.798Z,65.73
2022-08-19T20:52:08.490Z,65.55
2022-08-19T20:54:35.083Z,65.98
2022-08-19T20:57:03.838Z,65.97
2022-08-19T20:59:30.447Z,66.02
2022-08-19T21:01:57.494Z,66.15
2022-08-19T21:04:24.226Z,66.30
2022-08-19T21:06:50.853Z,66.63
2022-08-19T21:09:17.579Z,66.95
2022-08-19T21:11:44.171Z,66.69
2022-08-19T21:14:10.826Z,66.85
2022-08-19T21:16:37.393Z,67.09
2022-08-19T21:19:04.798Z,66.90
2022-08-19T21:21:33.093Z,67.30
2022-08-19T21:23:59.895Z,67.37
2022-08-19T21:26:26.459Z,67.44
2022-08-19T21:28:53.100Z,67.41
2022-08-19T21:31:19.701Z,67.60
2022-08-19T21:33:46.326Z,67.78
2022-08-19T21:36:12.902Z,68.13
2022-08-19T21:38:39.590Z,67.83
2022-08-19T21:41:06.757Z,67.97
2022-08-19T21:43:35.173Z,68.38
2022-08-19T21:46:01.918Z,68.24
2022-08-19T21:48:28.685Z,68.44
2022-08-19T21:50:55.470Z,68.56
2022-08-19T21:53:23.033Z,68.40
2022-08-19T21:55:53.402Z,68.74
2022-08-19T21:58:28.233Z,68.80
2022-08-19T22:00:58.826Z,68.92
2022-08-19T22:03:25.932Z,69.06
2022-08-19T22:05:52.863Z,69.16
2022-08-19T22:08:19.822Z,69.09
2022-08-19T22:10:46.869Z,69.24
2022-08-19T22:13:13.631Z,69.36
2022-08-19T22:15:42.526Z,69.20
2022-08-19T22:18:09.308Z,69.71
2022-08-19T22:20:36.088Z,69.64
2022-08-19T22:23:06.878Z,69.76
2022-08-19T22:25:36.453Z,69.83
2022-08-19T22:28:06.143Z,69.85
2022-08-19T22:30:36.238Z,69.98
2022-08-19T22:33:06.398Z,70.12
2022-08-19T22:35:34.711Z,70.27
2022-08-19T22:38:02.938Z,70.69
2022-08-19T22:40:30.623Z,70.91
2022-08-19T22:43:03.440Z,71.18
2022-08-19T22:45:31.411Z,71.11
2022-08-19T22:47:58.064Z,71.26
2022-08-19T22:50:24.756Z,71.26
2022-08-19T22:52:58.883Z,71.43
2022-08-19T22:55:26.800Z,71.46
2022-08-19T22:57:53.536Z,71.33
2022-08-19T23:00:22.329Z,71.43
2022-08-19T23:02:51.656Z,71.46
2022-08-19T23:05:22.202Z,71.39
2022-08-19T23:07:52.685Z,71.47
2022-08-19T23:10:26.642Z,71.37
2022-08-19T23:12:57.047Z,71.33
2022-08-19T23:15:27.684Z,71.35
2022-08-19T23:18:00.066Z,71.41
2022-08-19T23:20:30.627Z,71.20
2022-08-19T23:22:57.684Z,71.45
2022-08-19T23:25:27.403Z,71.56
2022-08-19T23:28:13.046Z,71.63
2022-08-19T23:30:43.772Z,71.45
2022-08-19T23:33:24.848Z,71.42
2022-08-19T23:36:01.468Z,71.53
2022-08-19T23:38:32.342Z,71.57
2022-08-19T23:41:01.903Z,71.78
2022-08-19T23:43:30.291Z,71.68
2022-08-19T23:46:00.818Z,71.74
2022-08-19T23:48:29.012Z,71.83
2022-08-19T23:50:57.116Z,71.98
2022-08-19T23:53:24.159Z,72.03
2022-08-19T23:55:50.987Z,71.99
2022-08-19T23:58:18.561Z,72.30
